Home > Products > Valid Products > MTR

000
SAUS41 KOKX 052055
MTRMTP
METAR KMTP 052054Z AUTO 15004KT 21/11 A3018 RMK AO1 SLP220 T02060106
56009





000
SAUS41 KOKX 052052
MTRNYC
METAR KNYC 052051Z AUTO VRB03KT 10SM BKN085 27/12 A3017 RMK AO2
SLP205 T02720122 56018 $





000
SAUS41 KOKX 051955
MTRMTP
METAR KMTP 051954Z AUTO 16003KT 22/12 A3019 RMK AO1 SLP223 T02170117





000
SAUS41 KOKX 051955
MTRMTP
METAR KMTP 051954Z AUTO 16003KT 22/12 A3019 RMK AO1 SLP223 T02170117





000
SAUS41 KOKX 051952
MTRNYC
METAR KNYC 051951Z AUTO VRB03KT 10SM SCT070 28/12 A3018 RMK AO2
SLP210 T02830117 $





000
SAUS41 KOKX 051857
MTRMTP
METAR KMTP 051854Z AUTO 00000KT 22/11 A3020 RMK AO1 SLP225 T02170111





000
SAUS41 KOKX 051857
MTRMTP
METAR KMTP 051854Z AUTO 00000KT 22/11 A3020 RMK AO1 SLP225 T02170111





000
SAUS41 KOKX 051853
MTRNYC
METAR KNYC 051851Z AUTO 00000KT 10SM SCT060 29/12 A3019 RMK AO2
SLP215 T02890117 $





000
SAUS41 KOKX 051853
MTRNYC
METAR KNYC 051851Z AUTO 00000KT 10SM SCT060 29/12 A3019 RMK AO2
SLP215 T02890117 $





000
SAUS41 KOKX 051755
MTRMTP
METAR KMTP 051754Z AUTO VRB04KT 20/11 A3021 RMK AO1 SLP229 T02000111
10206 20150 58005





000
SAUS41 KOKX 051755
MTRMTP
METAR KMTP 051754Z AUTO VRB04KT 20/11 A3021 RMK AO1 SLP229 T02000111
10206 20150 58005





000
SAUS41 KOKX 051753
MTRNYC
METAR KNYC 051751Z AUTO VRB05KT 10SM BKN060 27/12 A3022 RMK AO2
SLP223 T02670117 10278 20206 58008 $





000
SAUS41 KOKX 051753
MTRNYC
METAR KNYC 051751Z AUTO VRB05KT 10SM BKN060 27/12 A3022 RMK AO2
SLP223 T02670117 10278 20206 58008 $





000
SAUS41 KOKX 051655
MTRMTP
METAR KMTP 051654Z AUTO VRB03KT 18/11 A3022 RMK AO1 SLP234 T01830106





000
SAUS41 KOKX 051652
MTRNYC
METAR KNYC 051651Z AUTO VRB03KT 10SM FEW050 27/12 A3023 RMK AO2
SLP226 T02670122 $





000
SAUS41 KOKX 051555
MTRMTP
METAR KMTP 051554Z AUTO 14004KT 16/10 A3023 RMK AO1 SLP236 T01610100





000
SAUS41 KOKX 051553
MTRNYC
METAR KNYC 051551Z AUTO 07004KT 10SM CLR 26/12 A3024 RMK AO2 SLP231
T02560122 $





000
SAUS41 KOKX 051455
MTRMTP
METAR KMTP 051454Z AUTO VRB04KT 19/11 A3022 RMK AO1 SLP234 T01940106
53007





000
SAUS41 KOKX 051455
MTRMTP
METAR KMTP 051454Z AUTO VRB04KT 19/11 A3022 RMK AO1 SLP234 T01940106
53007





000
SAUS41 KOKX 051452
MTRNYC
METAR KNYC 051451Z AUTO VRB03KT 10SM BKN110 25/12 A3024 RMK AO2
SLP231 T02500117 53009 $





000
SAUS41 KOKX 051355
MTRMTP
METAR KMTP 051354Z AUTO 26004KT 19/10 A3021 RMK AO1 SLP228 T01940100





000
SAUS41 KOKX 051352
MTRNYC
METAR KNYC 051351Z AUTO VRB03KT 10SM OVC110 23/11 A3023 RMK AO2
SLP227 T02280106 $





000
SAUS41 KOKX 051255
MTRMTP
METAR KMTP 051254Z AUTO 27004KT 18/10 A3021 RMK AO1 SLP230 T01780100





000
SAUS41 KOKX 051255
MTRMTP
METAR KMTP 051254Z AUTO 27004KT 18/10 A3021 RMK AO1 SLP230 T01780100





000
SAUS41 KOKX 051252
MTRNYC
METAR KNYC 051251Z AUTO 10SM CLR 22/10 A3023 RMK AO2 SLP227
T02220100 $





000
SAUS41 KOKX 051252
MTRNYC
METAR KNYC 051251Z AUTO 10SM CLR 22/10 A3023 RMK AO2 SLP227
T02220100 $





000
SAUS41 KOKX 051155
MTRMTP
METAR KMTP 051154Z AUTO VRB03KT 15/10 A3020 RMK AO1 SLP227 T01500100
10161 20133 53009





000
SAUS41 KOKX 051155
MTRMTP
METAR KMTP 051154Z AUTO VRB03KT 15/10 A3020 RMK AO1 SLP227 T01500100
10161 20133 53009





000
SAUS41 KOKX 051153
MTRNYC
METAR KNYC 051151Z AUTO 29005KT 10SM CLR 21/09 A3022 RMK AO2 SLP222
T02060094 10211 20189 53014 $





000
SAUS41 KOKX 051153
MTRNYC
METAR KNYC 051151Z AUTO 29005KT 10SM CLR 21/09 A3022 RMK AO2 SLP222
T02060094 10211 20189 53014 $





000
SAUS41 KOKX 051055
MTRMTP
METAR KMTP 051054Z AUTO 22007KT 14/09 A3018 RMK AO1 SLP220 T01440094





000
SAUS41 KOKX 051055
MTRMTP
METAR KMTP 051054Z AUTO 22007KT 14/09 A3018 RMK AO1 SLP220 T01440094





000
SAUS41 KOKX 051053
MTRNYC
METAR KNYC 051051Z AUTO VRB04KT 10SM CLR 19/09 A3019 RMK AO2 SLP214
T01890089 $





000
SAUS41 KOKX 051053
MTRNYC
METAR KNYC 051051Z AUTO VRB04KT 10SM CLR 19/09 A3019 RMK AO2 SLP214
T01890089 $





000
SAUS41 KOKX 050955
MTRMTP
METAR KMTP 050954Z AUTO 21006KT 14/08 A3017 RMK AO1 SLP215 T01390083





000
SAUS41 KOKX 050955
MTRMTP
METAR KMTP 050954Z AUTO 21006KT 14/08 A3017 RMK AO1 SLP215 T01390083





000
SAUS41 KOKX 050952
MTRNYC
METAR KNYC 050951Z AUTO 24004KT 10SM CLR 19/08 A3018 RMK AO2 SLP210
T01890083 $





000
SAUS41 KOKX 050855
MTRMTP
METAR KMTP 050854Z AUTO 22009G21KT 14/08 A3018 RMK AO1 SLP218
T01440078 55000





000
SAUS41 KOKX 050855
MTRMTP
METAR KMTP 050854Z AUTO 22009G21KT 14/08 A3018 RMK AO1 SLP218
T01440078 55000





000
SAUS41 KOKX 050853
MTRNYC
METAR KNYC 050851Z AUTO VRB04KT 10SM CLR 19/08 A3018 RMK AO2 SLP208
T01940078 55003 $





000
SAUS41 KOKX 050853
MTRNYC
METAR KNYC 050851Z AUTO VRB04KT 10SM CLR 19/08 A3018 RMK AO2 SLP208
T01940078 55003 $





000
SAUS41 KOKX 050755 COR
MTRNYC
METAR KNYC 050751Z AUTO 25009G18KT 230V300 10SM CLR 20/08 A3017 RMK
AO2 SLP205 T02000078 $





000
SAUS41 KOKX 050755 COR
MTRNYC
METAR KNYC 050751Z AUTO 25009G18KT 230V300 10SM CLR 20/08 A3017 RMK
AO2 SLP205 T02000078 $





000
SAUS41 KOKX 050755
MTRMTP
METAR KMTP 050754Z AUTO 23011G20KT 16/07 A3017 RMK AO1 SLP215
T01560072





000
SAUS41 KOKX 050755
MTRMTP
METAR KMTP 050754Z AUTO 23011G20KT 16/07 A3017 RMK AO1 SLP215
T01560072





000
SAUS41 KOKX 050753 COR
MTRNYC
METAR KNYC 050751Z AUTO 25009G18KT 230V300 10SM CLR 20/08 A3017 RMK
AO2 SLP205 T02000078 $





000
SAUS41 KOKX 050655
MTRMTP
METAR KMTP 050654Z AUTO 22011G23KT 16/07 A3018 RMK AO1 PK WND
23031/0618 SLP218 T01560072





000
SAUS41 KOKX 050655
MTRMTP
METAR KMTP 050654Z AUTO 22011G23KT 16/07 A3018 RMK AO1 PK WND
23031/0618 SLP218 T01560072





000
SAUS41 KOKX 050653
MTRNYC
METAR KNYC 050651Z AUTO 24008KT 10SM CLR 21/07 A3017 RMK AO2 SLP207
T02060072 $





000
SAUS41 KOKX 050653
MTRNYC
METAR KNYC 050651Z AUTO 24008KT 10SM CLR 21/07 A3017 RMK AO2 SLP207
T02060072 $





000
SAUS41 KOKX 050555
MTRMTP
METAR KMTP 050554Z AUTO 23015G25KT 16/07 A3018 RMK AO1 PK WND
23027/0524 SLP218 T01610072 10167 20133 58004





000
SAUS41 KOKX 050553
MTRNYC
METAR KNYC 050551Z AUTO 25008KT 10SM CLR 21/07 A3018 RMK AO2 SLP211
T02060072 10267 20206 50001 $





000
SAUS41 KOKX 050456
MTRMTP
METAR KMTP 050454Z AUTO 22011G23KT 16/07 A3018 RMK AO1 SLP221
T01610072 401940094





000
SAUS41 KOKX 050452
MTRNYC
METAR KNYC 050451Z AUTO VRB06KT 10SM CLR 22/07 A3019 RMK AO2 SLP213
T02170067 402940139 $





000
SAUS41 KOKX 050355
MTRMTP
METAR KMTP 050354Z AUTO 21011G20KT 14/08 A3019 RMK AO1 SLP223
T01390083





000
SAUS41 KOKX 050353
MTRNYC
METAR KNYC 050351Z AUTO 23010G17KT 10SM CLR 22/06 A3019 RMK AO2
SLP212 T02220056 $





000
SAUS41 KOKX 050255
MTRMTP
METAR KMTP 050254Z AUTO 20011G21KT 14/08 A3019 RMK AO1 SLP222
T01390078 50002





000
SAUS41 KOKX 050252
MTRNYC
METAR KNYC 050251Z AUTO VRB06KT 10SM CLR 23/05 A3018 RMK AO2 SLP210
T02280050 51012 $





000
SAUS41 KOKX 050252
MTRNYC
METAR KNYC 050251Z AUTO VRB06KT 10SM CLR 23/05 A3018 RMK AO2 SLP210
T02280050 51012 $





000
SAUS41 KOKX 050155
MTRMTP
METAR KMTP 050154Z AUTO 20010G19KT 14/07 A3020 RMK AO1 SLP225
T01390072





000
SAUS41 KOKX 050153
MTRNYC
METAR KNYC 050151Z AUTO VRB05KT 10SM CLR 23/06 A3018 RMK AO2 SLP210
T02330061 $





000
SAUS41 KOKX 050055
MTRMTP
METAR KMTP 050054Z AUTO 20011G18KT 14/07 A3019 RMK AO1 SLP224
T01390072





000
SAUS41 KOKX 050053
MTRNYC
METAR KNYC 050051Z AUTO 18003KT 10SM CLR 23/07 A3017 RMK AO2 SLP206
T02330067 $





000
SAUS41 KOKX 042355
MTRMTP
METAR KMTP 042354Z AUTO 20011KT 14/07 A3018 RMK AO1 SLP220 T01390072
10194 20139 55002





000
SAUS41 KOKX 042355
MTRMTP
METAR KMTP 042354Z AUTO 20011KT 14/07 A3018 RMK AO1 SLP220 T01390072
10194 20139 55002





000
SAUS41 KOKX 042353
MTRNYC
METAR KNYC 042351Z AUTO VRB06KT 10SM CLR 27/05 A3015 RMK AO2 SLP199
T02670050 10294 20267 55000 $





000
SAUS41 KOKX 042353
MTRNYC
METAR KNYC 042351Z AUTO VRB06KT 10SM CLR 27/05 A3015 RMK AO2 SLP199
T02670050 10294 20267 55000 $





000
SAUS41 KOKX 042255
MTRMTP
METAR KMTP 042254Z AUTO 20010KT 14/08 A3018 RMK AO1 SLP218 T01440078





000
SAUS41 KOKX 042255
MTRMTP
METAR KMTP 042254Z AUTO 20010KT 14/08 A3018 RMK AO1 SLP218 T01440078





000
SAUS41 KOKX 042253
MTRNYC
METAR KNYC 042251Z AUTO VRB05KT 10SM CLR 28/04 A3014 RMK AO2 SLP196
T02780044 $





000
SAUS41 KOKX 042253
MTRNYC
METAR KNYC 042251Z AUTO VRB05KT 10SM CLR 28/04 A3014 RMK AO2 SLP196
T02780044 $





000
SAUS41 KOKX 042155
MTRMTP
METAR KMTP 042154Z AUTO 20012G20KT 17/08 A3018 RMK AO1 SLP220
T01720078





000
SAUS41 KOKX 042153
MTRNYC
METAR KNYC 042151Z AUTO 23008G17KT 200V280 10SM CLR 28/04 A3014 RMK
AO2 SLP197 T02830039 $





000
SAUS41 KOKX 042153
MTRNYC
METAR KNYC 042151Z AUTO 23008G17KT 200V280 10SM CLR 28/04 A3014 RMK
AO2 SLP197 T02830039 $





000
SAUS41 KOKX 042055
MTRMTP
METAR KMTP 042054Z AUTO 20009G17KT 18/08 A3019 RMK AO1 SLP222
T01780083 58008





000
SAUS41 KOKX 042052
MTRNYC
METAR KNYC 042051Z AUTO VRB06KT 10SM FEW100 28/04 A3014 RMK AO2
SLP199 T02830039 56017 $





000
SAUS41 KOKX 041955
MTRMTP
METAR KMTP 041954Z AUTO 20010G18KT 19/08 A3020 RMK AO1 SLP225
T01940078





000
SAUS41 KOKX 041952
MTRNYC
METAR KNYC 041951Z AUTO 18007KT 10SM CLR 28/05 A3016 RMK AO2 SLP204
T02780050 $





000
SAUS41 KOKX 041855
MTRMTP
METAR KMTP 041854Z AUTO 20010G17KT 19/08 A3021 RMK AO1 SLP229
T01890083





000
SAUS41 KOKX 041853
MTRNYC
METAR KNYC 041851Z AUTO 19009G17KT 10SM CLR 27/07 A3018 RMK AO2
SLP211 T02720067 $





000
SAUS41 KOKX 041755
MTRMTP
METAR KMTP 041754Z AUTO 20010G18KT 19/08 A3021 RMK AO1 SLP230
T01890083 10189 20122 58013





000
SAUS41 KOKX 041755
MTRMTP
METAR KMTP 041754Z AUTO 20010G18KT 19/08 A3021 RMK AO1 SLP230
T01890083 10189 20122 58013





000
SAUS41 KOKX 041752
MTRNYC
METAR KNYC 041751Z AUTO 16008KT 10SM FEW100 28/08 A3020 RMK AO2
SLP216 T02780078 10294 20167 56013 $





000
SAUS41 KOKX 041655
MTRMTP
METAR KMTP 041654Z AUTO 19008G15KT 17/09 A3023 RMK AO1 SLP235
T01720089





000
SAUS41 KOKX 041655
MTRMTP
METAR KMTP 041654Z AUTO 19008G15KT 17/09 A3023 RMK AO1 SLP235
T01720089





000
SAUS41 KOKX 041653
MTRNYC
METAR KNYC 041651Z AUTO 25008KT 200V280 9SM CLR 29/07 A3020 RMK AO2
SLP217 T02890067 $





000
SAUS41 KOKX 041653
MTRNYC
METAR KNYC 041651Z AUTO 25008KT 200V280 9SM CLR 29/07 A3020 RMK AO2
SLP217 T02890067 $





000
SAUS41 KOKX 041555
MTRMTP
METAR KMTP 041554Z AUTO 18008KT 17/09 A3024 RMK AO1 SLP241 T01720094





000
SAUS41 KOKX 041555
MTRMTP
METAR KMTP 041554Z AUTO 18008KT 17/09 A3024 RMK AO1 SLP241 T01720094





000
SAUS41 KOKX 041553
MTRNYC
METAR KNYC 041551Z AUTO 10SM CLR 27/07 A3023 RMK AO2 SLP227
T02720072 $





000
SAUS41 KOKX 041455
MTRMTP
METAR KMTP 041454Z AUTO VRB04KT 19/11 A3025 RMK AO1 SLP243 T01890106
53004





000
SAUS41 KOKX 041453
MTRNYC
METAR KNYC 041451Z AUTO VRB04KT 8SM FEW009 26/07 A3023 RMK AO2
SLP229 T02560067 58000 $





000
SAUS41 KOKX 041453
MTRNYC
METAR KNYC 041451Z AUTO VRB04KT 8SM FEW009 26/07 A3023 RMK AO2
SLP229 T02560067 58000 $





000
SAUS41 KOKX 041355
MTRMTP
METAR KMTP 041354Z AUTO 17006KT 16/11 A3024 RMK AO1 SLP240 T01610106





000
SAUS41 KOKX 041355
MTRMTP
METAR KMTP 041354Z AUTO 17006KT 16/11 A3024 RMK AO1 SLP240 T01610106





000
SAUS41 KOKX 041352
MTRNYC
METAR KNYC 041351Z AUTO 00000KT 7SM CLR 22/09 A3024 RMK AO2 SLP229
T02220094 $





000
SAUS41 KOKX 041352
MTRNYC
METAR KNYC 041351Z AUTO 00000KT 7SM CLR 22/09 A3024 RMK AO2 SLP229
T02220094 $





000
SAUS41 KOKX 041255
MTRMTP
METAR KMTP 041254Z AUTO 14005KT 15/11 A3024 RMK AO1 SLP239 T01500106





000
SAUS41 KOKX 041255
MTRMTP
METAR KMTP 041254Z AUTO 14005KT 15/11 A3024 RMK AO1 SLP239 T01500106





000
SAUS41 KOKX 041252
MTRNYC
METAR KNYC 041251Z AUTO 00000KT 8SM CLR 19/09 A3024 RMK AO2 SLP229
T01940089 $





000
SAUS41 KOKX 041155
MTRMTP
METAR KMTP 041154Z AUTO 17004KT 12/11 A3024 RMK AO1 SLP239 T01220111
10122 20094 51008





000
SAUS41 KOKX 041155
MTRMTP
METAR KMTP 041154Z AUTO 17004KT 12/11 A3024 RMK AO1 SLP239 T01220111
10122 20094 51008





000
SAUS41 KOKX 041152
MTRNYC
METAR KNYC 041151Z AUTO 00000KT 9SM CLR 17/09 A3024 RMK AO2 SLP229
T01670089 10167 20139 51014 $





000
SAUS41 KOKX 041152
MTRNYC
METAR KNYC 041151Z AUTO 00000KT 9SM CLR 17/09 A3024 RMK AO2 SLP229
T01670089 10167 20139 51014 $





000
SAUS41 KOKX 041055
MTRMTP
METAR KMTP 041054Z AUTO VRB03KT 11/09 A3023 RMK AO1 SLP237 T01060094





000
SAUS41 KOKX 041053
MTRNYC
METAR KNYC 041051Z AUTO 00000KT 10SM CLR 14/08 A3023 RMK AO2 SLP227
T01440083 $





000
SAUS41 KOKX 041053
MTRNYC
METAR KNYC 041051Z AUTO 00000KT 10SM CLR 14/08 A3023 RMK AO2 SLP227
T01440083 $





000
SAUS41 KOKX 040955
MTRMTP
METAR KMTP 040954Z AUTO 17004KT 10/08 A3022 RMK AO1 SLP233 T01000083





000
SAUS41 KOKX 040952
MTRNYC
METAR KNYC 040951Z AUTO 04003KT 10SM CLR 14/08 A3021 RMK AO2 SLP220
T01390083 $





000
SAUS41 KOKX 040855
MTRMTP
METAR KMTP 040854Z AUTO 15003KT 09/08 A3021 RMK AO1 SLP231 T00940078
53003





000
SAUS41 KOKX 040853
MTRNYC
METAR KNYC 040851Z AUTO 05004KT 10SM CLR 14/09 A3019 RMK AO2 SLP215
T01390089 53001 $





000
SAUS41 KOKX 040853
MTRNYC
METAR KNYC 040851Z AUTO 05004KT 10SM CLR 14/09 A3019 RMK AO2 SLP215
T01390089 53001 $





000
SAUS41 KOKX 040755
MTRMTP
METAR KMTP 040754Z AUTO 16003KT 10/08 A3021 RMK AO1 SLP230 T01000078





000
SAUS41 KOKX 040755
MTRMTP
METAR KMTP 040754Z AUTO 16003KT 10/08 A3021 RMK AO1 SLP230 T01000078





000
SAUS41 KOKX 040753
MTRNYC
METAR KNYC 040751Z AUTO 04003KT 10SM CLR 14/08 A3019 RMK AO2 SLP214
T01390083 $





000
SAUS41 KOKX 040655
MTRMTP
METAR KMTP 040654Z AUTO 17003KT 10/08 A3020 RMK AO1 SLP228 T01000078





000
SAUS41 KOKX 040652
MTRNYC
METAR KNYC 040651Z AUTO 05004KT 10SM CLR 14/08 A3018 RMK AO2 SLP212
T01390083 $





000
SAUS41 KOKX 040555
MTRMTP
METAR KMTP 040554Z AUTO 00000KT 09/08 A3021 RMK AO1 SLP228 T00940078
10106 20094 50005





000
SAUS41 KOKX 040553
MTRNYC
METAR KNYC 040551Z AUTO 00000KT 7SM CLR 16/06 A3019 RMK AO2 SLP214
T01610061 10194 20150 51009 $





000
SAUS41 KOKX 040553
MTRNYC
METAR KNYC 040551Z AUTO 00000KT 7SM CLR 16/06 A3019 RMK AO2 SLP214
T01610061 10194 20150 51009 $





000
SAUS41 KOKX 040455
MTRMTP
METAR KMTP 040454Z AUTO 00000KT 10/08 A3021 RMK AO1 SLP229 T01000078
401670067





000
SAUS41 KOKX 040452
MTRNYC
METAR KNYC 040451Z AUTO 00000KT 10SM CLR 16/08 A3019 RMK AO2 SLP213
T01560083 402670106 $





000
SAUS41 KOKX 040355
MTRMTP
METAR KMTP 040354Z AUTO 00000KT 11/08 A3020 RMK AO1 SLP227 T01060078





000
SAUS41 KOKX 040353
MTRNYC
METAR KNYC 040351Z AUTO 00000KT 10SM CLR 16/07 A3017 RMK AO2 SLP208
T01610067 $





000
SAUS41 KOKX 040255
MTRMTP
METAR KMTP 040254Z AUTO VRB03KT 11/08 A3019 RMK AO1 SLP223 T01060078
51014





000
SAUS41 KOKX 040255
MTRMTP
METAR KMTP 040254Z AUTO VRB03KT 11/08 A3019 RMK AO1 SLP223 T01060078
51014





000
SAUS41 KOKX 040252
MTRNYC
METAR KNYC 040251Z AUTO 00000KT 10SM CLR 18/05 A3016 RMK AO2 SLP205
T01780050 51018 $





000
SAUS41 KOKX 040155
MTRMTP
METAR KMTP 040154Z AUTO 20003KT 10/07 A3019 RMK AO1 SLP222 T01000072





000
SAUS41 KOKX 040153
MTRNYC
METAR KNYC 040151Z AUTO 17003KT 10SM CLR 19/03 A3015 RMK AO2 SLP201
T01890033 $





000
SAUS41 KOKX 040055
MTRMTP
METAR KMTP 040054Z AUTO 18005KT 10/07 A3017 RMK AO1 SLP214 T01000072





000
SAUS41 KOKX 040055
MTRMTP
METAR KMTP 040054Z AUTO 18005KT 10/07 A3017 RMK AO1 SLP214 T01000072





000
SAUS41 KOKX 040052
MTRNYC
METAR KNYC 040051Z AUTO VRB04KT 10SM CLR 19/03 A3013 RMK AO2 SLP194
T01940033 $





000
SAUS41 KOKX 040052
MTRNYC
METAR KNYC 040051Z AUTO VRB04KT 10SM CLR 19/03 A3013 RMK AO2 SLP194
T01940033 $





000
SAUS41 KOKX 032355
MTRMTP
METAR KMTP 032354Z AUTO 18005KT 11/07 A3015 RMK AO1 SLP209 T01110067
10139 20111 51012





000
SAUS41 KOKX 032355
MTRMTP
METAR KMTP 032354Z AUTO 18005KT 11/07 A3015 RMK AO1 SLP209 T01110067
10139 20111 51012





000
SAUS41 KOKX 032352
MTRNYC
METAR KNYC 032351Z AUTO 19003KT 10SM CLR 19/03 A3011 RMK AO2 SLP187
T01940033 10267 20194 51010 $





000
SAUS41 KOKX 032352
MTRNYC
METAR KNYC 032351Z AUTO 19003KT 10SM CLR 19/03 A3011 RMK AO2 SLP187
T01940033 10267 20194 51010 $





000
SAUS41 KOKX 032255
MTRMTP
METAR KMTP 032254Z AUTO 17007KT 12/05 A3014 RMK AO1 SLP207 T01170050





000
SAUS41 KOKX 032255
MTRMTP
METAR KMTP 032254Z AUTO 17007KT 12/05 A3014 RMK AO1 SLP207 T01170050





000
SAUS41 KOKX 032253
MTRNYC
METAR KNYC 032251Z AUTO VRB05KT 10SM CLR 21/03 A3010 RMK AO2 SLP184
T02060028 $





000
SAUS41 KOKX 032253
MTRNYC
METAR KNYC 032251Z AUTO VRB05KT 10SM CLR 21/03 A3010 RMK AO2 SLP184
T02060028 $





000
SAUS41 KOKX 032155
MTRMTP
METAR KMTP 032154Z AUTO VRB06KT 12/04 A3013 RMK AO1 SLP204 T01220044





000
SAUS41 KOKX 032152
MTRNYC
METAR KNYC 032151Z AUTO VRB03KT 10SM CLR 22/04 A3009 RMK AO2 SLP181
T02170044 $





000
SAUS41 KOKX 032055
MTRMTP
METAR KMTP 032054Z AUTO 17007KT 13/06 A3011 RMK AO1 SLP197 T01280056
58003





000
SAUS41 KOKX 032055
MTRMTP
METAR KMTP 032054Z AUTO 17007KT 13/06 A3011 RMK AO1 SLP197 T01280056
58003





000
SAUS41 KOKX 032052
MTRNYC
METAR KNYC 032051Z AUTO 16008KT 10SM CLR 24/05 A3008 RMK AO2 SLP177
T02390050 56005 $





000
SAUS41 KOKX 032052
MTRNYC
METAR KNYC 032051Z AUTO 16008KT 10SM CLR 24/05 A3008 RMK AO2 SLP177
T02390050 56005 $





000
SAUS41 KOKX 031955
MTRMTP
METAR KMTP 031954Z AUTO 18007G14KT 13/06 A3012 RMK AO1 SLP199
T01280061





000
SAUS41 KOKX 031955
MTRMTP
METAR KMTP 031954Z AUTO 18007G14KT 13/06 A3012 RMK AO1 SLP199
T01280061





000
SAUS41 KOKX 031953
MTRNYC
METAR KNYC 031951Z AUTO 10SM CLR 25/02 A3008 RMK AO2 SLP177
T02500022 $





000
SAUS41 KOKX 031953
MTRNYC
METAR KNYC 031951Z AUTO 10SM CLR 25/02 A3008 RMK AO2 SLP177
T02500022 $





000
SAUS41 KOKX 031855
MTRMTP
METAR KMTP 031854Z AUTO 18007KT 13/06 A3012 RMK AO1 SLP200 T01330061





000
SAUS41 KOKX 031852
MTRNYC
METAR KNYC 031851Z AUTO VRB05KT 10SM CLR 26/04 A3009 RMK AO2 SLP180
T02560039 $





000
SAUS41 KOKX 031852
MTRNYC
METAR KNYC 031851Z AUTO VRB05KT 10SM CLR 26/04 A3009 RMK AO2 SLP180
T02560039 $





000
SAUS41 KOKX 031755
MTRMTP
METAR KMTP 031754Z AUTO 19008G16KT 13/06 A3012 RMK AO1 SLP200
T01330061 10167 20111 51006





000
SAUS41 KOKX 031755
MTRMTP
METAR KMTP 031754Z AUTO 19008G16KT 13/06 A3012 RMK AO1 SLP200
T01330061 10167 20111 51006





000
SAUS41 KOKX 031753
MTRNYC
METAR KNYC 031751Z AUTO 00000KT 10SM CLR 25/02 A3009 RMK AO2 SLP182
T02500017 10261 20122 58007 $





000
SAUS41 KOKX 031655
MTRMTP
METAR KMTP 031654Z AUTO 19009KT 14/05 A3011 RMK AO1 SLP197 T01440050





000
SAUS41 KOKX 031655
MTRMTP
METAR KMTP 031654Z AUTO 19009KT 14/05 A3011 RMK AO1 SLP197 T01440050





000
SAUS41 KOKX 031653
MTRNYC
METAR KNYC 031651Z AUTO 00000KT 10SM CLR 25/02 A3010 RMK AO2 SLP184
T02500022 $





000
SAUS41 KOKX 031555
MTRMTP
METAR KMTP 031554Z AUTO 19006KT 16/04 A3012 RMK AO1 SLP198 T01610039





000
SAUS41 KOKX 031553
MTRNYC
METAR KNYC 031551Z AUTO 27005KT 10SM CLR 23/03 A3011 RMK AO2 SLP188
T02280033 $





000
SAUS41 KOKX 031455
MTRMTP
METAR KMTP 031454Z AUTO VRB06KT 16/04 A3010 RMK AO1 SLP194 T01610039
53001





000
SAUS41 KOKX 031455
MTRMTP
METAR KMTP 031454Z AUTO VRB06KT 16/04 A3010 RMK AO1 SLP194 T01610039
53001





000
SAUS41 KOKX 031452
MTRNYC
METAR KNYC 031451Z AUTO 00000KT 10SM CLR 21/04 A3012 RMK AO2 SLP189
T02060044 53003 $





000
SAUS41 KOKX 031355
MTRMTP
METAR KMTP 031354Z AUTO VRB04KT 16/03 A3010 RMK AO1 SLP192 T01560033





000
SAUS41 KOKX 031352
MTRNYC
METAR KNYC 031351Z AUTO 00000KT 10SM CLR 17/04 A3011 RMK AO2 SLP186
T01720044 $





000
SAUS41 KOKX 031352
MTRNYC
METAR KNYC 031351Z AUTO 00000KT 10SM CLR 17/04 A3011 RMK AO2 SLP186
T01720044 $





000
SAUS41 KOKX 031255
MTRMTP
METAR KMTP 031254Z AUTO VRB04KT 13/06 A3010 RMK AO1 SLP193 T01330061





000
SAUS41 KOKX 031255
MTRMTP
METAR KMTP 031254Z AUTO VRB04KT 13/06 A3010 RMK AO1 SLP193 T01330061





000
SAUS41 KOKX 031253
MTRNYC
METAR KNYC 031251Z AUTO 00000KT 10SM CLR 14/04 A3011 RMK AO2 SLP188
T01440039 $





000
SAUS41 KOKX 031253
MTRNYC
METAR KNYC 031251Z AUTO 00000KT 10SM CLR 14/04 A3011 RMK AO2 SLP188
T01440039 $





000
SAUS41 KOKX 031155
MTRMTP
METAR KMTP 031154Z AUTO 23003KT 11/06 A3010 RMK AO1 SLP193 T01110056
10111 20067 53013





000
SAUS41 KOKX 031155
MTRMTP
METAR KMTP 031154Z AUTO 23003KT 11/06 A3010 RMK AO1 SLP193 T01110056
10111 20067 53013





000
SAUS41 KOKX 031152
MTRNYC
METAR KNYC 031151Z AUTO 00000KT 10SM CLR 12/04 A3011 RMK AO2 SLP187
T01220039 10122 20106 53012 $





000
SAUS41 KOKX 031152
MTRNYC
METAR KNYC 031151Z AUTO 00000KT 10SM CLR 12/04 A3011 RMK AO2 SLP187
T01220039 10122 20106 53012 $





000
SAUS41 KOKX 031055
MTRMTP
METAR KMTP 031054Z AUTO 00000KT 09/07 A3009 RMK AO1 SLP188 T00940067





000
SAUS41 KOKX 031052
MTRNYC
METAR KNYC 031051Z AUTO VRB03KT 10SM CLR 11/02 A3010 RMK AO2 SLP183
T01110022 $





000
SAUS41 KOKX 030955
MTRMTP
METAR KMTP 030954Z AUTO 00000KT 09/06 A3007 RMK AO1 SLP183 T00890061





000
SAUS41 KOKX 030952
MTRNYC
METAR KNYC 030951Z AUTO VRB04KT 10SM CLR 11/02 A3007 RMK AO2 SLP175
T01060017 $





000
SAUS41 KOKX 030952
MTRNYC
METAR KNYC 030951Z AUTO VRB04KT 10SM CLR 11/02 A3007 RMK AO2 SLP175
T01060017 $





000
SAUS41 KOKX 030855
MTRMTP
METAR KMTP 030854Z AUTO 00000KT 08/06 A3006 RMK AO1 SLP180 T00830056
53002





000
SAUS41 KOKX 030855
MTRMTP
METAR KMTP 030854Z AUTO 00000KT 08/06 A3006 RMK AO1 SLP180 T00830056
53002





000
SAUS41 KOKX 030852
MTRNYC
METAR KNYC 030851Z AUTO 00000KT 10SM CLR 11/01 A3007 RMK AO2 SLP174
T01060011 53004 $





000
SAUS41 KOKX 030755
MTRMTP
METAR KMTP 030754Z AUTO 26004KT 08/06 A3006 RMK AO1 SLP178 T00830056





000
SAUS41 KOKX 030752
MTRNYC
METAR KNYC 030751Z AUTO 27004KT 10SM CLR 11/01 A3007 RMK AO2 SLP173
T01110011 $





000
SAUS41 KOKX 030655
MTRMTP
METAR KMTP 030654Z AUTO 00000KT 08/06 A3005 RMK AO1 SLP175 T00830056





000
SAUS41 KOKX 030655
MTRMTP
METAR KMTP 030654Z AUTO 00000KT 08/06 A3005 RMK AO1 SLP175 T00830056





000
SAUS41 KOKX 030652
MTRNYC
METAR KNYC 030651Z AUTO 27003KT 10SM CLR 11/02 A3006 RMK AO2 SLP171
T01110017 $





000
SAUS41 KOKX 030652
MTRNYC
METAR KNYC 030651Z AUTO 27003KT 10SM CLR 11/02 A3006 RMK AO2 SLP171
T01110017 $





000
SAUS41 KOKX 030555
MTRMTP
METAR KMTP 030554Z AUTO 00000KT 08/05 A3006 RMK AO1 SLP178 T00780050
10083 20067 50002





000
SAUS41 KOKX 030555
MTRMTP
METAR KMTP 030554Z AUTO 00000KT 08/05 A3006 RMK AO1 SLP178 T00780050
10083 20067 50002





000
SAUS41 KOKX 030553
MTRNYC
METAR KNYC 030551Z AUTO 00000KT 10SM CLR 11/01 A3006 RMK AO2 SLP171
T01110011 10117 20106 58001 $





000
SAUS41 KOKX 030553
MTRNYC
METAR KNYC 030551Z AUTO 00000KT 10SM CLR 11/01 A3006 RMK AO2 SLP171
T01110011 10117 20106 58001 $





000
SAUS41 KOKX 030455
MTRMTP
METAR KMTP 030454Z AUTO 00000KT 07/03 A3006 RMK AO1 SLP179 T00670033
401330067





000
SAUS41 KOKX 030452
MTRNYC
METAR KNYC 030451Z AUTO 24003KT 10SM BKN100 11/01 A3007 RMK AO2
SLP174 T01110011 402330089 $





000
SAUS41 KOKX 030355
MTRMTP
METAR KMTP 030354Z AUTO 00000KT 08/04 A3005 RMK AO1 SLP176 T00780039





000
SAUS41 KOKX 030352
MTRNYC
METAR KNYC 030351Z AUTO 00000KT 10SM BKN100 11/02 A3007 RMK AO2
SLP173 T01110017 $





000
SAUS41 KOKX 030352
MTRNYC
METAR KNYC 030351Z AUTO 00000KT 10SM BKN100 11/02 A3007 RMK AO2
SLP173 T01110017 $





000
SAUS41 KOKX 030255
MTRMTP
METAR KMTP 030254Z AUTO 25003KT 08/04 A3005 RMK AO1 SLP176 T00780044
51007





000
SAUS41 KOKX 030255
MTRMTP
METAR KMTP 030254Z AUTO 25003KT 08/04 A3005 RMK AO1 SLP176 T00780044
51007





000
SAUS41 KOKX 030253
MTRNYC
METAR KNYC 030251Z AUTO 00000KT 10SM BKN100 11/02 A3007 RMK AO2
SLP172 T01110022 51016 $





000
SAUS41 KOKX 030155
MTRMTP
METAR KMTP 030154Z AUTO 00000KT 08/04 A3005 RMK AO1 SLP175 T00780039





000
SAUS41 KOKX 030155
MTRMTP
METAR KMTP 030154Z AUTO 00000KT 08/04 A3005 RMK AO1 SLP175 T00780039





000
SAUS41 KOKX 030152
MTRNYC
METAR KNYC 030151Z AUTO 19006KT 10SM FEW100 11/02 A3006 RMK AO2
SLP168 T01110022 $





000
SAUS41 KOKX 030055
MTRMTP
METAR KMTP 030054Z AUTO 00000KT 08/04 A3004 RMK AO1 SLP171 T00780044





000
SAUS41 KOKX 030055
MTRMTP
METAR KMTP 030054Z AUTO 00000KT 08/04 A3004 RMK AO1 SLP171 T00780044





000
SAUS41 KOKX 030052
MTRNYC
METAR KNYC 030051Z AUTO VRB05KT 10SM FEW095 11/03 A3004 RMK AO2
SLP163 T01060028 $





000
SAUS41 KOKX 030052
MTRNYC
METAR KNYC 030051Z AUTO VRB05KT 10SM FEW095 11/03 A3004 RMK AO2
SLP163 T01060028 $





000
SAUS41 KOKX 022355
MTRMTP
METAR KMTP 022354Z AUTO 18004KT 08/03 A3003 RMK AO1 SLP169 T00830033
10122 20083 53013





000
SAUS41 KOKX 022355
MTRMTP
METAR KMTP 022354Z AUTO 18004KT 08/03 A3003 RMK AO1 SLP169 T00830033
10122 20083 53013





000
SAUS41 KOKX 022352
MTRNYC
METAR KNYC 022351Z AUTO 16005KT 10SM CLR 11/03 A3002 RMK AO2 SLP157
T01110033 10233 20111 53014 $





000
SAUS41 KOKX 022255
MTRMTP
METAR KMTP 022254Z AUTO VRB04KT 09/04 A3001 RMK AO1 SLP161 T00940039





000
SAUS41 KOKX 022255
MTRMTP
METAR KMTP 022254Z AUTO VRB04KT 09/04 A3001 RMK AO1 SLP161 T00940039





000
SAUS41 KOKX 022253
MTRNYC
METAR KNYC 022251Z AUTO 18008G16KT 10SM CLR 12/04 A3000 RMK AO2
SLP150 T01220039 $





000
SAUS41 KOKX 022253
MTRNYC
METAR KNYC 022251Z AUTO 18008G16KT 10SM CLR 12/04 A3000 RMK AO2
SLP150 T01220039 $





000
SAUS41 KOKX 022155
MTRMTP
METAR KMTP 022154Z AUTO 17004KT 11/04 A3000 RMK AO1 SLP159 T01060039





000
SAUS41 KOKX 022155
MTRMTP
METAR KMTP 022154Z AUTO 17004KT 11/04 A3000 RMK AO1 SLP159 T01060039





000
SAUS41 KOKX 022153
MTRNYC
METAR KNYC 022151Z AUTO VRB06KT 10SM CLR 14/04 A2999 RMK AO2 SLP146
T01390044 $





000
SAUS41 KOKX 022153
MTRNYC
METAR KNYC 022151Z AUTO VRB06KT 10SM CLR 14/04 A2999 RMK AO2 SLP146
T01390044 $





    US Dept of Commerce
    National Oceanic and Atmospheric Administration
    National Weather Service
    1325 East West Highway
    Silver Spring, MD 20910
    Page Author: NWS Internet Services Team
Disclaimer
Information Quality
Credits
Glossary
Privacy Policy
Freedom of Information Act (FOIA)
About Us
Career Opportunities